Terminal Aerodrome Forecast
Issued by NWS

Home | Current Version | Previous Version | Graphics & Text | Print | Product List | Glossary On
Versions: 1 2 3 4 5 6 7 8 9 10 11 12 13
000
FTUS43 KICT 291720
TAFCNU
TAF
KCNU 291720Z 2918/3018 02008KT P6SM SCT050 BKN150
     FM292100 04009KT P6SM VCTS SCT050CB BKN080
     FM300300 05005KT P6SM VCSH OVC070
     FM301600 09006KT P6SM VCSH OVC060=

USA.gov is the U.S. government's official web portal to all federal, state and local government web resources and services.